Time;durP1;ratioP1;P1;durP2;ratioP2;P2;SDS_P1;SDS_P2;PMS_P1;PMS_P2;Temp;Humidity;BMP_temperature;BMP_pressure;BME280_temperature;BME280_humidity;BME280_pressure;Samples;Min_cycle;Max_cycle;Signal;HPM_P1;HPM_P2
2022/08/16 00:01:55;;;;;;;;;;;;;;;26.44;44.64;98663.31;4343949;32;34224;-75
2022/08/16 00:04:28;;;;;;;;;;;;;;;26.55;44.55;98660.50;4331768;32;33481;-76
2022/08/16 00:06:57;;;;;;;;;;;;;;;26.52;44.68;98663.41;4329866;32;34161;-75
2022/08/16 00:09:25;;;;;;;;;;;;;;;26.50;44.92;98668.88;4332093;33;33882;-75
2022/08/16 00:11:55;;;;;;;;;;;;;;;26.48;45.08;98677.97;4324955;33;33728;-76
2022/08/16 00:14:26;;;;;;;;;;;;;;;26.43;45.11;98673.09;4343999;33;33934;-76
2022/08/16 00:16:58;;;;;;;;;;;;;;;26.44;45.41;98676.63;4339172;33;34503;-76
2022/08/16 00:19:47;;;;;;;;;;;;;;;26.39;45.45;98680.53;4339343;32;33555;-75
2022/08/16 00:22:21;;;;;;;;;;;;;;;26.29;45.56;98679.75;4337677;32;34142;-75
2022/08/16 00:24:53;;;;;;;;;;;;;;;26.34;45.34;98677.50;4339039;32;33949;-75
2022/08/16 00:27:22;;;;;;;;;;;;;;;26.34;45.54;98682.81;4344351;32;34284;-76
2022/08/16 00:29:51;;;;;;;;;;;;;;;26.18;45.96;98680.75;4337512;32;32449;-75
2022/08/16 00:32:41;;;;;;;;;;;;;;;26.24;45.75;98683.81;4336603;32;33640;-76
2022/08/16 00:35:11;;;;;;;;;;;;;;;26.01;46.39;98680.66;4337731;32;33955;-75
2022/08/16 00:37:43;;;;;;;;;;;;;;;25.88;46.74;98684.47;4336646;32;34063;-75
2022/08/16 00:40:27;;;;;;;;;;;;;;;25.82;46.82;98677.00;4343223;32;33113;-76
2022/08/16 00:43:05;;;;;;;;;;;;;;;25.78;46.93;98683.59;4329703;32;34039;-75
2022/08/16 00:45:49;;;;;;;;;;;;;;;25.64;47.09;98679.56;4339427;33;33842;-76
2022/08/16 00:48:28;;;;;;;;;;;;;;;25.64;46.56;98678.72;4340528;33;34210;-75
2022/08/16 00:51:00;;;;;;;;;;;;;;;25.44;46.85;98684.03;4336023;32;33861;-74
2022/08/16 00:53:29;;;;;;;;;;;;;;;25.48;46.54;98685.44;4343574;32;36332;-75
2022/08/16 00:56:04;;;;;;;;;;;;;;;25.42;46.66;98683.34;4338055;32;33826;-76
2022/08/16 00:58:34;;;;;;;;;;;;;;;25.32;46.85;98686.00;4336810;32;34140;-75
2022/08/16 01:01:02;;;;;;;;;;;;;;;25.27;47.02;98682.06;4335806;32;34012;-76
2022/08/16 01:03:36;;;;;;;;;;;;;;;25.32;46.55;98695.75;4331954;32;33536;-75
2022/08/16 01:06:10;;;;;;;;;;;;;;;25.22;46.97;98694.91;4343290;32;34683;-76
2022/08/16 01:08:59;;;;;;;;;;;;;;;25.11;47.45;98694.03;4340050;32;33902;-76
2022/08/16 01:11:28;;;;;;;;;;;;;;;25.12;47.54;98695.69;4338162;32;32569;-75
2022/08/16 01:13:59;;;;;;;;;;;;;;;25.17;47.46;98702.41;4338079;32;34792;-75
2022/08/16 01:16:27;;;;;;;;;;;;;;;25.02;48.01;98699.31;4338322;32;34278;-75
2022/08/16 01:18:58;;;;;;;;;;;;;;;25.28;46.08;98705.81;4345318;32;34621;-76
2022/08/16 01:21:35;;;;;;;;;;;;;;;25.16;46.45;98698.94;4338273;32;33285;-75
2022/08/16 01:24:22;;;;;;;;;;;;;;;24.91;47.60;98700.25;4339645;32;34190;-76
2022/08/16 01:27:12;;;;;;;;;;;;;;;24.99;47.38;98692.47;4339758;32;33778;-76
2022/08/16 01:29:44;;;;;;;;;;;;;;;24.76;47.85;98693.66;4338315;32;34454;-75
2022/08/16 01:32:28;;;;;;;;;;;;;;;24.89;47.69;98697.75;4343393;32;33694;-74
2022/08/16 01:35:02;;;;;;;;;;;;;;;24.85;47.71;98699.00;4345329;32;35347;-75
2022/08/16 01:37:37;;;;;;;;;;;;;;;24.84;47.70;98694.66;4339011;32;33190;-77
2022/08/16 01:40:10;;;;;;;;;;;;;;;24.88;47.66;98692.56;4339757;32;34081;-76
2022/08/16 01:42:38;;;;;;;;;;;;;;;24.80;47.73;98689.75;4337607;32;32867;-75
2022/08/16 01:45:10;;;;;;;;;;;;;;;24.61;48.25;98693.19;4340695;32;33768;-75
2022/08/16 01:47:38;;;;;;;;;;;;;;;24.68;47.82;98689.03;4339820;33;33878;-74
2022/08/16 01:50:20;;;;;;;;;;;;;;;24.72;47.79;98693.09;4340244;32;34177;-75
2022/08/16 01:53:09;;;;;;;;;;;;;;;24.66;47.94;98691.81;4338452;32;34030;-75
2022/08/16 01:55:41;;;;;;;;;;;;;;;24.44;48.61;98698.09;4338723;32;34700;-75
2022/08/16 01:58:23;;;;;;;;;;;;;;;24.51;48.60;98697.63;4338134;32;34171;-76
2022/08/16 02:00:52;;;;;;;;;;;;;;;24.63;48.30;98694.72;4340707;32;33800;-76
2022/08/16 02:03:22;;;;;;;;;;;;;;;24.45;48.61;98693.62;4337499;32;32983;-76
2022/08/16 02:05:53;;;;;;;;;;;;;;;24.70;47.35;98695.88;4340826;33;34199;-75
2022/08/16 02:08:22;;;;;;;;;;;;;;;24.54;48.15;98690.22;4338732;32;33898;-74
2022/08/16 02:11:04;;;;;;;;;;;;;;;24.47;48.06;98699.69;4340156;32;33814;-75
2022/08/16 02:13:32;;;;;;;;;;;;;;;24.44;48.36;98706.06;4339561;32;33408;-74
2022/08/16 02:16:01;;;;;;;;;;;;;;;24.31;48.30;98694.84;4338011;32;34112;-76
2022/08/16 02:18:30;;;;;;;;;;;;;;;24.28;48.52;98693.31;4339752;32;33900;-76
2022/08/16 02:21:02;;;;;;;;;;;;;;;24.24;48.45;98693.69;4327168;32;34358;-74
2022/08/16 02:23:31;;;;;;;;;;;;;;;24.27;48.66;98693.41;4339213;32;33807;-76
2022/08/16 02:26:01;;;;;;;;;;;;;;;24.26;48.86;98691.75;4338360;32;33643;-75
2022/08/16 02:28:31;;;;;;;;;;;;;;;24.28;48.64;98693.31;4339246;32;34903;-76
2022/08/16 02:31:04;;;;;;;;;;;;;;;24.31;48.49;98691.34;4339531;32;33626;-76
2022/08/16 02:33:33;;;;;;;;;;;;;;;23.91;49.73;98687.63;4340061;33;33389;-75
2022/08/16 02:36:13;;;;;;;;;;;;;;;24.11;49.29;98690.41;4346152;33;34904;-75
2022/08/16 02:39:01;;;;;;;;;;;;;;;24.10;49.03;98692.22;4342357;32;34755;-75
2022/08/16 02:41:30;;;;;;;;;;;;;;;24.23;48.97;98695.47;4338317;32;34882;-76
2022/08/16 02:44:06;;;;;;;;;;;;;;;24.18;49.18;98689.72;4334818;32;34177;-75
2022/08/16 02:46:35;;;;;;;;;;;;;;;24.28;48.60;98690.66;4331373;33;35500;-76
2022/08/16 02:49:07;;;;;;;;;;;;;;;24.24;48.66;98681.28;4345997;33;33503;-75
2022/08/16 02:51:36;;;;;;;;;;;;;;;24.19;48.98;98683.47;4334027;32;34232;-75
2022/08/16 02:54:09;;;;;;;;;;;;;;;24.09;49.23;98682.59;4338080;32;32192;-75
2022/08/16 02:56:38;;;;;;;;;;;;;;;24.11;49.03;98677.97;4338542;32;34214;-76
2022/08/16 02:59:09;;;;;;;;;;;;;;;24.09;49.04;98679.09;4339531;32;34106;-75
2022/08/16 03:01:42;;;;;;;;;;;;;;;24.06;49.21;98686.31;4340807;32;33910;-76
2022/08/16 03:04:12;;;;;;;;;;;;;;;24.10;49.19;98686.91;4337912;32;33962;-75
2022/08/16 03:07:01;;;;;;;;;;;;;;;24.14;49.26;98684.81;4338445;32;34238;-75
2022/08/16 03:09:34;;;;;;;;;;;;;;;23.95;49.65;98685.56;4338309;32;34168;-75
2022/08/16 03:12:03;;;;;;;;;;;;;;;23.95;49.70;98682.94;4338334;32;33398;-75
2022/08/16 03:14:34;;;;;;;;;;;;;;;23.93;49.72;98690.16;4343506;32;34065;-76
2022/08/16 03:17:05;;;;;;;;;;;;;;;23.92;49.57;98685.81;4339255;32;34712;-76
2022/08/16 03:19:35;;;;;;;;;;;;;;;23.74;49.63;98688.22;4338123;32;34343;-75
2022/08/16 03:22:17;;;;;;;;;;;;;;;23.66;49.84;98691.47;4333870;32;34639;-76
2022/08/16 03:24:57;;;;;;;;;;;;;;;23.78;49.47;98685.19;4337140;32;34061;-75
2022/08/16 03:27:29;;;;;;;;;;;;;;;23.89;48.82;98692.22;4339617;32;34751;-75
2022/08/16 03:30:01;;;;;;;;;;;;;;;23.88;48.93;98695.84;4337768;32;33362;-76
2022/08/16 03:32:46;;;;;;;;;;;;;;;23.78;49.32;98705.53;4330840;32;34068;-75
2022/08/16 03:35:20;;;;;;;;;;;;;;;23.87;49.07;98707.38;4339489;32;33875;-75
2022/08/16 03:37:48;;;;;;;;;;;;;;;23.89;49.25;98709.91;4338969;32;33943;-76
2022/08/16 03:40:32;;;;;;;;;;;;;;;23.79;49.44;98721.28;4339583;32;33632;-75
2022/08/16 03:43:02;;;;;;;;;;;;;;;23.93;49.06;98714.84;4335941;32;33136;-75
2022/08/16 03:45:51;;;;;;;;;;;;;;;23.91;49.14;98723.88;4337670;32;33734;-74
2022/08/16 03:48:22;;;;;;;;;;;;;;;24.02;49.14;98721.19;4338756;32;34719;-75
2022/08/16 03:51:06;;;;;;;;;;;;;;;23.95;49.50;98722.66;4338900;32;34920;-76
2022/08/16 03:53:36;;;;;;;;;;;;;;;23.90;49.65;98723.03;4344247;32;33682;-75
2022/08/16 03:56:06;;;;;;;;;;;;;;;23.91;49.75;98722.06;4337309;32;33998;-76
2022/08/16 03:58:48;;;;;;;;;;;;;;;23.93;50.06;98721.94;4339021;32;33552;-78
2022/08/16 04:01:21;;;;;;;;;;;;;;;23.94;49.87;98724.44;4335128;32;34040;-77
2022/08/16 04:03:51;;;;;;;;;;;;;;;23.98;49.76;98730.34;4337457;32;33919;-78
2022/08/16 04:06:22;;;;;;;;;;;;;;;23.98;49.92;98736.47;4344753;32;33395;-77
2022/08/16 04:08:50;;;;;;;;;;;;;;;23.99;50.09;98732.88;4315106;32;777953;-77
2022/08/16 04:11:20;;;;;;;;;;;;;;;23.88;50.38;98740.03;4336961;32;33939;-77
2022/08/16 04:13:52;;;;;;;;;;;;;;;23.82;50.68;98736.94;4332457;33;34042;-78
2022/08/16 04:16:32;;;;;;;;;;;;;;;23.41;51.54;98735.00;4339102;32;33891;-77
2022/08/16 04:19:02;;;;;;;;;;;;;;;23.83;50.56;98735.94;4339823;32;33933;-77
2022/08/16 04:21:32;;;;;;;;;;;;;;;24.22;49.60;98738.88;4339062;32;34006;-76
2022/08/16 04:24:02;;;;;;;;;;;;;;;24.26;49.15;98737.66;4338710;32;34150;-77
2022/08/16 04:26:36;;;;;;;;;;;;;;;24.35;49.31;98743.13;4335378;32;33872;-77
2022/08/16 04:29:14;;;;;;;;;;;;;;;24.22;49.97;98738.03;4338190;32;34015;-77
2022/08/16 04:31:54;;;;;;;;;;;;;;;24.24;50.05;98739.59;4343502;32;33754;-77
2022/08/16 04:34:23;;;;;;;;;;;;;;;24.46;50.33;98748.38;4337300;32;34023;-78
2022/08/16 04:36:53;;;;;;;;;;;;;;;24.55;50.72;98744.94;4336234;32;33141;-76
2022/08/16 04:39:24;;;;;;;;;;;;;;;24.69;49.75;98736.63;4338563;32;33204;-77
2022/08/16 04:42:13;;;;;;;;;;;;;;;24.72;49.59;98746.16;4338787;32;33780;-78
2022/08/16 04:44:42;;;;;;;;;;;;;;;24.57;49.65;98740.31;4343376;32;33993;-79
2022/08/16 04:47:27;;;;;;;;;;;;;;;24.81;49.83;98744.47;4337668;32;33800;-77
2022/08/16 04:50:03;;;;;;;;;;;;;;;24.92;49.23;98747.88;4331830;32;34214;-77
2022/08/16 04:52:32;;;;;;;;;;;;;;;24.93;49.16;98751.37;4335845;32;33898;-78
2022/08/16 04:55:05;;;;;;;;;;;;;;;24.99;49.39;98757.97;4339027;33;33904;-77
2022/08/16 04:57:40;;;;;;;;;;;;;;;24.98;48.91;98751.81;4341636;32;32788;-77
2022/08/16 05:00:12;;;;;;;;;;;;;;;24.88;49.35;98756.25;4336725;32;34338;-77
2022/08/16 05:03:06;;;;;;;;;;;;;;;25.08;49.22;98752.69;4335995;32;33470;-77
2022/08/16 05:05:42;;;;;;;;;;;;;;;25.03;49.68;98756.72;4332933;32;34037;-78
2022/08/16 05:08:23;;;;;;;;;;;;;;;25.19;49.88;98764.19;4333597;32;32628;-77
2022/08/16 05:10:58;;;;;;;;;;;;;;;25.24;49.21;98754.84;4339100;32;34195;-79
2022/08/16 05:13:30;;;;;;;;;;;;;;;25.26;48.96;98760.84;4340084;32;34193;-77
2022/08/16 05:16:13;;;;;;;;;;;;;;;25.32;47.68;98768.28;4335928;32;33994;-77
2022/08/16 05:18:51;;;;;;;;;;;;;;;25.48;47.66;98777.53;4333237;33;33922;-78
2022/08/16 05:21:21;;;;;;;;;;;;;;;25.40;47.58;98782.69;4337157;32;33984;-78
2022/08/16 05:23:52;;;;;;;;;;;;;;;25.53;47.07;98781.44;4336591;32;33144;-78
2022/08/16 05:26:29;;;;;;;;;;;;;;;25.44;47.39;98784.09;4335928;32;34187;-79
2022/08/16 05:28:57;;;;;;;;;;;;;;;25.39;47.28;98781.00;4336917;32;32775;-79
2022/08/16 05:31:27;;;;;;;;;;;;;;;25.29;48.00;98792.44;4337661;32;33694;-78
2022/08/16 05:34:00;;;;;;;;;;;;;;;25.48;47.35;98791.66;4336916;32;33994;-79
2022/08/16 05:36:31;;;;;;;;;;;;;;;25.47;47.20;98789.97;4339890;32;33646;-79
2022/08/16 05:39:05;;;;;;;;;;;;;;;25.59;46.28;98787.19;4338606;32;33122;-79
2022/08/16 05:41:35;;;;;;;;;;;;;;;25.56;47.75;98785.62;4336431;33;33196;-79
2022/08/16 05:44:14;;;;;;;;;;;;;;;25.61;47.22;98791.38;4332302;33;33752;-75
2022/08/16 05:46:53;;;;;;;;;;;;;;;25.60;47.01;98788.87;4332011;33;34193;-76
2022/08/16 05:49:25;;;;;;;;;;;;;;;25.67;46.14;98795.31;4341500;32;33467;-76
2022/08/16 05:52:07;;;;;;;;;;;;;;;25.76;45.39;98790.00;4343604;33;34113;-76
2022/08/16 05:54:41;;;;;;;;;;;;;;;25.50;45.73;98789.69;4337841;33;33738;-76
2022/08/16 05:57:16;;;;;;;;;;;;;;;25.44;46.07;98781.44;4340070;33;33660;-75
2022/08/16 05:59:46;;;;;;;;;;;;;;;25.37;46.57;98782.94;4337069;33;33140;-76
2022/08/16 06:02:18;;;;;;;;;;;;;;;25.30;46.53;98780.03;4342840;33;33673;-76
2022/08/16 06:04:48;;;;;;;;;;;;;;;25.41;46.58;98790.50;4341136;33;35349;-75
2022/08/16 06:07:17;;;;;;;;;;;;;;;25.28;46.76;98782.81;4336785;33;34436;-76
2022/08/16 06:09:57;;;;;;;;;;;;;;;25.33;47.11;98793.03;4335381;33;34493;-78
2022/08/16 06:12:28;;;;;;;;;;;;;;;25.09;48.16;98782.72;4330028;33;34653;-75
2022/08/16 06:14:57;;;;;;;;;;;;;;;25.03;49.67;98791.19;4343880;33;33329;-77
2022/08/16 06:17:27;;;;;;;;;;;;;;;24.88;51.41;98780.13;4338866;33;33004;-76
2022/08/16 06:20:14;;;;;;;;;;;;;;;24.59;53.58;98778.16;4330603;32;34013;-75
2022/08/16 06:22:50;;;;;;;;;;;;;;;24.73;53.69;98782.28;4326761;33;34122;-78
2022/08/16 06:25:27;;;;;;;;;;;;;;;24.88;54.35;98775.66;4338888;33;33798;-76
2022/08/16 06:28:08;;;;;;;;;;;;;;;24.99;54.86;98777.38;4339630;33;34119;-78
2022/08/16 06:30:38;;;;;;;;;;;;;;;25.00;53.60;98768.44;4344901;33;33865;-75
2022/08/16 06:33:13;;;;;;;;;;;;;;;24.94;51.46;98776.94;4339898;33;34800;-77
2022/08/16 06:35:51;;;;;;;;;;;;;;;24.83;53.76;98763.75;4341107;33;33659;-75
2022/08/16 06:38:27;;;;;;;;;;;;;;;24.77;53.75;98773.09;4341202;33;33919;-75
2022/08/16 06:41:03;;;;;;;;;;;;;;;24.73;50.86;98762.88;4340726;33;33484;-76
2022/08/16 06:43:33;;;;;;;;;;;;;;;24.80;48.46;98745.47;4346036;33;33657;-78
2022/08/16 06:46:06;;;;;;;;;;;;;;;25.19;42.58;98740.31;4333931;33;33949;-76
2022/08/16 06:48:37;;;;;;;;;;;;;;;25.77;38.96;98737.72;4340583;33;34586;-77
2022/08/16 06:51:12;;;;;;;;;;;;;;;26.02;38.40;98730.16;4340343;33;33499;-77
2022/08/16 06:53:42;;;;;;;;;;;;;;;26.31;36.86;98741.59;4331669;33;34566;-76
2022/08/16 06:56:11;;;;;;;;;;;;;;;26.49;38.43;98738.19;4325238;33;33792;-75
2022/08/16 06:58:52;;;;;;;;;;;;;;;26.64;38.20;98741.25;4325983;33;34789;-76
2022/08/16 07:01:21;;;;;;;;;;;;;;;26.62;38.69;98745.88;4330440;33;34270;-75
2022/08/16 07:04:09;;;;;;;;;;;;;;;26.74;38.16;98747.38;4330612;33;33552;-75
2022/08/16 07:06:43;;;;;;;;;;;;;;;26.73;42.86;98756.34;4327087;33;34271;-76
2022/08/16 07:09:14;;;;;;;;;;;;;;;26.74;41.79;98753.50;4331211;33;34260;-76
2022/08/16 07:11:44;;;;;;;;;;;;;;;27.14;40.76;98768.34;4326261;33;33303;-76
2022/08/16 07:14:19;;;;;;;;;;;;;;;27.22;44.20;98771.09;4340292;33;33816;-78
2022/08/16 07:16:56;;;;;;;;;;;;;;;27.51;45.23;98780.75;4340562;33;34853;-76
2022/08/16 07:19:26;;;;;;;;;;;;;;;27.70;43.99;98782.44;4346357;33;33614;-76
2022/08/16 07:22:17;;;;;;;;;;;;;;;27.05;46.31;98797.66;4346183;33;33668;-76
2022/08/16 07:25:09;;;;;;;;;;;;;;;26.65;48.39;98799.63;4340270;33;34679;-77
2022/08/16 07:27:40;;;;;;;;;;;;;;;26.25;49.73;98805.13;4340613;33;35116;-76
2022/08/16 07:30:11;;;;;;;;;;;;;;;26.15;51.73;98800.66;4340821;33;33333;-76
2022/08/16 07:33:04;;;;;;;;;;;;;;;25.92;53.66;98812.56;4340173;33;32871;-75
2022/08/16 07:35:35;;;;;;;;;;;;;;;25.55;54.97;98815.84;4345650;33;33896;-77
2022/08/16 07:38:06;;;;;;;;;;;;;;;25.38;56.00;98813.84;4333149;33;33913;-77
2022/08/16 07:40:34;;;;;;;;;;;;;;;25.40;55.84;98815.41;4325735;33;33861;-76
2022/08/16 07:43:23;;;;;;;;;;;;;;;25.29;55.80;98828.75;4327154;33;33185;-76
2022/08/16 07:45:58;;;;;;;;;;;;;;;25.61;55.43;98825.06;4339357;33;33858;-78
2022/08/16 07:48:29;;;;;;;;;;;;;;;25.58;56.33;98826.19;4342971;33;34370;-78
2022/08/16 07:50:59;;;;;;;;;;;;;;;25.81;53.84;98823.31;4344912;33;33906;-75
2022/08/16 07:53:37;;;;;;;;;;;;;;;25.92;54.24;98815.22;4340478;33;33426;-77
2022/08/16 07:56:11;;;;;;;;;;;;;;;26.01;53.83;98825.00;4339508;33;34909;-77
2022/08/16 07:58:41;;;;;;;;;;;;;;;26.13;52.45;98817.75;4338417;33;32590;-75
2022/08/16 08:01:12;;;;;;;;;;;;;;;26.30;50.93;98819.69;4345401;33;33583;-76
2022/08/16 08:03:45;;;;;;;;;;;;;;;26.28;51.78;98821.63;4337141;33;32731;-76
2022/08/16 08:06:17;;;;;;;;;;;;;;;26.35;51.54;98816.59;4333087;33;33870;-76
2022/08/16 08:08:48;;;;;;;;;;;;;;;26.42;52.23;98823.03;4338758;33;34864;-76
2022/08/16 08:11:24;;;;;;;;;;;;;;;26.70;54.01;98824.00;4337710;33;34580;-77
2022/08/16 08:13:58;;;;;;;;;;;;;;;26.78;53.05;98829.41;4345324;33;32517;-77
2022/08/16 08:16:31;;;;;;;;;;;;;;;27.00;50.92;98827.37;4337253;33;35250;-77
2022/08/16 08:19:00;;;;;;;;;;;;;;;26.99;50.88;98833.69;4340338;32;34141;-75
2022/08/16 08:21:31;;;;;;;;;;;;;;;27.13;50.29;98824.38;4340799;33;33525;-76
2022/08/16 08:24:22;;;;;;;;;;;;;;;27.14;49.90;98831.41;4334243;33;33195;-77
2022/08/16 08:27:00;;;;;;;;;;;;;;;27.23;49.08;98835.84;4343399;33;34168;-77
2022/08/16 08:29:31;;;;;;;;;;;;;;;27.33;47.91;98842.00;4345460;33;34209;-77
2022/08/16 08:32:06;;;;;;;;;;;;;;;27.42;47.11;98841.09;4339335;33;34818;-76
2022/08/16 08:34:57;;;;;;;;;;;;;;;27.41;46.84;98844.75;4339616;33;33616;-75
2022/08/16 08:37:31;;;;;;;;;;;;;;;27.52;45.02;98848.19;4332088;33;34549;-76
2022/08/16 08:40:21;;;;;;;;;;;;;;;27.64;43.17;98841.66;4337352;33;34376;-77
2022/08/16 08:42:55;;;;;;;;;;;;;;;27.60;44.04;98838.47;4344995;33;34433;-76
2022/08/16 08:45:28;;;;;;;;;;;;;;;27.63;43.40;98838.16;4336984;33;33509;-76
2022/08/16 08:48:15;;;;;;;;;;;;;;;28.00;41.30;98842.56;4339184;33;34018;-75
2022/08/16 08:51:03;;;;;;;;;;;;;;;28.07;40.92;98837.47;4339780;33;33692;-76
2022/08/16 08:53:33;;;;;;;;;;;;;;;28.18;39.56;98825.72;4339138;33;34695;-77
2022/08/16 08:56:04;;;;;;;;;;;;;;;28.21;41.21;98830.75;4340730;32;34290;-74
2022/08/16 08:58:53;;;;;;;;;;;;;;;28.32;42.82;98827.84;4345284;33;34395;-76
2022/08/16 09:01:29;;;;;;;;;;;;;;;28.20;40.91;98829.91;4339894;33;34772;-77
2022/08/16 09:03:59;;;;;;;;;;;;;;;28.52;41.30;98833.84;4331710;32;34631;-76
2022/08/16 09:06:30;;;;;;;;;;;;;;;28.74;40.89;98823.66;4334740;33;32330;-76
2022/08/16 09:09:00;;;;;;;;;;;;;;;28.95;41.29;98834.81;4337317;33;33897;-75
2022/08/16 09:11:30;;;;;;;;;;;;;;;29.01;40.22;98831.47;4341045;33;33476;-76
2022/08/16 09:14:09;;;;;;;;;;;;;;;29.27;39.73;98836.81;4337936;33;34020;-76
2022/08/16 09:16:52;;;;;;;;;;;;;;;29.34;40.12;98837.00;4337543;33;33111;-76
2022/08/16 09:19:31;;;;;;;;;;;;;;;29.72;39.24;98824.97;4337855;33;34592;-77
2022/08/16 09:22:02;;;;;;;;;;;;;;;29.68;40.51;98823.62;4331567;33;33603;-77
2022/08/16 09:24:32;;;;;;;;;;;;;;;29.96;39.78;98824.16;4339024;33;33415;-76
2022/08/16 09:27:22;;;;;;;;;;;;;;;30.13;38.74;98803.63;4334790;33;34260;-78
2022/08/16 09:29:52;;;;;;;;;;;;;;;30.35;36.78;98801.31;4339063;33;33515;-77
2022/08/16 09:32:28;;;;;;;;;;;;;;;30.33;35.23;98800.62;4334253;33;34538;-77
2022/08/16 09:34:58;;;;;;;;;;;;;;;30.56;33.26;98798.91;4338076;33;34819;-78
2022/08/16 09:37:27;;;;;;;;;;;;;;;30.87;32.66;98798.19;4341857;32;32620;-76
2022/08/16 09:39:57;;;;;;;;;;;;;;;30.94;32.13;98803.72;4333929;33;34055;-76
2022/08/16 09:42:28;;;;;;;;;;;;;;;30.86;32.70;98801.91;4331276;32;33766;-79
2022/08/16 09:44:57;;;;;;;;;;;;;;;31.10;31.85;98805.47;4336091;33;33882;-76
2022/08/16 09:47:40;;;;;;;;;;;;;;;31.22;30.41;98806.78;4332507;33;33518;-76
2022/08/16 09:50:28;;;;;;;;;;;;;;;31.42;31.16;98794.66;4342468;33;33562;-76
2022/08/16 09:53:07;;;;;;;;;;;;;;;31.44;31.36;98808.72;4340411;33;35029;-76
2022/08/16 09:55:45;;;;;;;;;;;;;;;31.71;29.81;98803.03;4337569;32;33577;-77
2022/08/16 09:58:19;;;;;;;;;;;;;;;31.84;30.09;98796.03;4331489;33;33444;-77
2022/08/16 10:01:07;;;;;;;;;;;;;;;32.09;30.26;98791.38;4335291;33;33774;-77
2022/08/16 10:03:39;;;;;;;;;;;;;;;32.10;30.25;98784.16;4334699;33;33326;-78
2022/08/16 10:06:27;;;;;;;;;;;;;;;32.13;30.55;98791.84;4341982;33;34542;-77
2022/08/16 10:09:01;;;;;;;;;;;;;;;32.34;30.18;98784.97;4339296;33;32956;-76
2022/08/16 10:14:22;;;;;;;;;;;;;;;32.55;28.68;98789.63;4331861;33;33733;-77
2022/08/16 10:17:01;;;;;;;;;;;;;;;32.65;28.51;98777.62;4330204;33;34835;-76
2022/08/16 10:19:30;;;;;;;;;;;;;;;32.93;26.38;98780.50;4340198;33;33389;-76
2022/08/16 10:21:59;;;;;;;;;;;;;;;32.97;27.28;98782.81;4329926;33;33918;-76
2022/08/16 10:24:33;;;;;;;;;;;;;;;33.15;27.04;98784.13;4329679;33;34284;-78
2022/08/16 10:27:01;;;;;;;;;;;;;;;33.13;27.80;98783.47;4333773;33;33953;-76
2022/08/16 10:29:51;;;;;;;;;;;;;;;33.14;26.99;98781.59;4333199;33;33365;-76
2022/08/16 10:32:29;;;;;;;;;;;;;;;33.13;25.95;98788.00;4335573;33;33633;-77
2022/08/16 10:35:00;;;;;;;;;;;;;;;32.85;26.49;98783.25;4339753;33;32750;-77
2022/08/16 10:37:32;;;;;;;;;;;;;;;33.36;26.22;98782.50;4333554;33;34483;-76
2022/08/16 10:40:04;;;;;;;;;;;;;;;33.22;27.07;98781.50;4333327;33;33664;-76
2022/08/16 10:42:53;;;;;;;;;;;;;;;33.65;27.50;98778.91;4331281;33;33994;-77
2022/08/16 10:45:26;;;;;;;;;;;;;;;33.91;27.17;98783.72;4334457;33;34689;-78
2022/08/16 10:47:55;;;;;;;;;;;;;;;34.28;25.38;98772.88;4341034;32;33560;-76
2022/08/16 10:50:31;;;;;;;;;;;;;;;34.41;24.85;98776.50;4334252;32;33777;-76
2022/08/16 10:53:05;;;;;;;;;;;;;;;34.48;24.86;98778.41;4334041;32;33888;-77
2022/08/16 10:55:36;;;;;;;;;;;;;;;34.47;24.31;98777.56;4336810;32;33840;-77
2022/08/16 10:58:12;;;;;;;;;;;;;;;34.15;25.00;98784.38;4342244;33;33484;-76
2022/08/16 11:00:46;;;;;;;;;;;;;;;34.39;23.80;98773.19;4340261;33;32291;-77
2022/08/16 11:03:14;;;;;;;;;;;;;;;34.60;23.90;98763.38;4338390;33;34904;-77
2022/08/16 11:06:03;;;;;;;;;;;;;;;34.51;24.08;98754.62;4337957;33;33931;-78
2022/08/16 11:08:34;;;;;;;;;;;;;;;35.01;25.24;98759.88;4337827;33;33937;-77
2022/08/16 11:11:14;;;;;;;;;;;;;;;35.27;24.32;98756.47;4338955;33;33334;-77
2022/08/16 11:13:48;;;;;;;;;;;;;;;35.34;23.86;98751.94;4343668;33;33797;-76
2022/08/16 11:16:28;;;;;;;;;;;;;;;35.48;23.49;98774.41;4337381;33;33982;-77
2022/08/16 11:19:17;;;;;;;;;;;;;;;35.21;22.96;98763.53;4339052;33;34326;-77
2022/08/16 11:21:46;;;;;;;;;;;;;;;35.59;24.98;98759.47;4338909;33;33195;-77
2022/08/16 11:24:38;;;;;;;;;;;;;;;35.92;23.16;98756.84;4335382;33;33631;-77
2022/08/16 11:27:14;;;;;;;;;;;;;;;36.28;23.09;98753.75;4334209;33;34136;-78
2022/08/16 11:29:48;;;;;;;;;;;;;;;36.49;22.16;98749.16;4339431;33;34169;-76
2022/08/16 11:32:21;;;;;;;;;;;;;;;36.76;22.21;98765.34;4332695;33;33758;-77
2022/08/16 11:34:59;;;;;;;;;;;;;;;36.64;21.55;98762.47;4337335;33;33906;-75
2022/08/16 11:37:43;;;;;;;;;;;;;;;36.22;22.44;98772.66;4340714;32;34049;-76
2022/08/16 11:40:33;;;;;;;;;;;;;;;35.29;25.15;98780.56;4339261;33;33994;-77
2022/08/16 11:43:04;;;;;;;;;;;;;;;35.08;25.20;98768.81;4344002;33;32595;-77
2022/08/16 11:45:33;;;;;;;;;;;;;;;34.31;25.70;98784.09;4338696;33;33394;-76
2022/08/16 11:48:03;;;;;;;;;;;;;;;33.82;25.80;98794.81;4337781;33;33771;-76
2022/08/16 11:50:32;;;;;;;;;;;;;;;34.18;25.56;98786.66;4333403;33;31962;-78
2022/08/16 11:53:01;;;;;;;;;;;;;;;33.94;26.37;98777.94;4335417;33;33579;-76
2022/08/16 11:55:31;;;;;;;;;;;;;;;34.30;26.32;98777.03;4339744;33;33981;-79
2022/08/16 11:58:00;;;;;;;;;;;;;;;34.53;25.91;98782.19;4336812;33;35009;-78
2022/08/16 12:00:30;;;;;;;;;;;;;;;34.53;25.24;98787.56;4336883;33;33844;-79
2022/08/16 12:03:19;;;;;;;;;;;;;;;34.99;25.02;98783.53;4332809;33;33516;-80
2022/08/16 12:06:02;;;;;;;;;;;;;;;35.16;24.83;98782.19;4332849;33;34172;-79
2022/08/16 12:08:31;;;;;;;;;;;;;;;35.24;24.40;98773.91;4340230;33;34380;-78
2022/08/16 12:11:00;;;;;;;;;;;;;;;35.90;23.72;98773.25;4334889;33;33493;-76
2022/08/16 12:13:29;;;;;;;;;;;;;;;36.10;23.24;98777.84;4337315;33;34034;-76
2022/08/16 12:15:58;;;;;;;;;;;;;;;36.35;23.14;98774.53;4335050;33;34649;-77
2022/08/16 12:18:28;;;;;;;;;;;;;;;36.77;22.65;98775.94;4343235;33;34565;-78
2022/08/16 12:20:56;;;;;;;;;;;;;;;36.26;22.88;98766.63;4337197;33;33613;-76
2022/08/16 12:23:27;;;;;;;;;;;;;;;37.04;22.01;98760.44;4337907;33;33092;-76
2022/08/16 12:25:58;;;;;;;;;;;;;;;37.35;21.32;98767.00;4334801;33;33584;-77
2022/08/16 12:28:27;;;;;;;;;;;;;;;37.13;21.65;98761.91;4336206;33;33945;-77
2022/08/16 12:31:15;;;;;;;;;;;;;;;37.26;21.41;98754.75;4343924;33;33551;-77
2022/08/16 12:33:45;;;;;;;;;;;;;;;37.15;21.77;98759.00;4334077;33;33166;-77
2022/08/16 12:36:22;;;;;;;;;;;;;;;37.20;23.56;98763.75;4334974;33;34093;-77
2022/08/16 12:38:50;;;;;;;;;;;;;;;36.13;24.87;98768.53;4333216;33;34919;-76
2022/08/16 12:41:20;;;;;;;;;;;;;;;36.28;23.54;98774.53;4336502;33;33618;-76
2022/08/16 12:43:53;;;;;;;;;;;;;;;36.10;22.79;98780.53;4342170;33;33920;-76
2022/08/16 12:46:28;;;;;;;;;;;;;;;35.95;22.41;98780.72;4335548;33;33843;-76
2022/08/16 12:49:00;;;;;;;;;;;;;;;35.61;23.42;98777.12;4334662;33;33249;-77
2022/08/16 12:51:30;;;;;;;;;;;;;;;34.92;24.25;98788.87;4334961;33;33628;-76
2022/08/16 12:54:19;;;;;;;;;;;;;;;34.51;24.74;98791.50;4332021;33;33525;-76
2022/08/16 12:56:47;;;;;;;;;;;;;;;34.45;25.17;98784.19;4341448;33;33406;-77
2022/08/16 12:59:17;;;;;;;;;;;;;;;34.15;25.84;98787.06;4336978;33;34650;-77
2022/08/16 13:01:48;;;;;;;;;;;;;;;33.45;27.04;98789.41;4335206;33;33334;-76
2022/08/16 13:04:23;;;;;;;;;;;;;;;33.07;27.18;98772.63;4334271;33;34012;-76
2022/08/16 13:06:53;;;;;;;;;;;;;;;33.24;27.60;98773.25;4336498;33;33944;-77
2022/08/16 13:09:23;;;;;;;;;;;;;;;33.12;27.36;98770.19;4342731;33;33803;-76
2022/08/16 13:12:00;;;;;;;;;;;;;;;33.05;26.97;98772.81;4336176;33;34901;-75
2022/08/16 13:14:32;;;;;;;;;;;;;;;32.91;27.52;98766.41;4338774;33;33240;-77
2022/08/16 13:17:02;;;;;;;;;;;;;;;32.91;27.45;98763.72;4337707;33;33784;-76
2022/08/16 13:19:35;;;;;;;;;;;;;;;33.13;27.76;98763.81;4343012;33;33817;-76
2022/08/16 13:22:23;;;;;;;;;;;;;;;33.30;27.79;98753.69;4342607;33;34099;-76
2022/08/16 13:24:53;;;;;;;;;;;;;;;33.30;25.93;98754.50;4338892;33;32940;-75
2022/08/16 13:27:23;;;;;;;;;;;;;;;33.17;26.29;98753.53;4339033;33;34453;-76
2022/08/16 13:30:12;;;;;;;;;;;;;;;33.39;26.13;98744.47;4339288;33;35337;-75